DAY weather

James M Cox Dayton International Airport
Dayton, Ohio, United States

Public forecast

Using degrees Fahrenheit for public forecast. Weather courtesy of forecast.io.

METAR (pilot weather report)

Retrieved 2019/05/21 11:56 UTC (25 minutes ago):

KDAY 211156Z 05007KT 10SM OVC170 10/06 A3017 RMK AO2 SLP216 T01000061 10100 20078 53022

TAF (pilot weather forecast)

Retrieved 2019/05/21 12:30 UTC (0 seconds ago):

TAF KDAY 211129Z 2112/2212 07008KT P6SM BKN150 FM211600 08010KT P6SM BKN070 FM220000 09010KT P6SM FEW080 FM220900 11009KT P6SM SCT060 BKN200